createdAt,value
2019-03-18T00:01:06.309Z,1.10
2019-03-18T00:06:07.451Z,0.90
2019-03-18T00:11:08.550Z,0.90
2019-03-18T00:16:09.738Z,1.00
2019-03-18T00:21:10.836Z,0.50
2019-03-18T00:26:11.932Z,0.60
2019-03-18T00:31:13.042Z,0.77
2019-03-18T00:36:14.172Z,0.60
2019-03-18T00:41:15.263Z,0.70
2019-03-18T00:46:16.354Z,0.70
2019-03-18T00:51:17.467Z,0.67
2019-03-18T00:56:18.548Z,0.60
2019-03-18T01:01:19.658Z,0.83
2019-03-18T01:06:20.735Z,0.70
2019-03-18T01:11:21.831Z,0.90
2019-03-18T01:16:22.920Z,0.77
2019-03-18T01:21:24.007Z,0.70
2019-03-18T01:26:25.104Z,0.73
2019-03-18T01:31:26.213Z,0.73
2019-03-18T01:36:27.431Z,0.73
2019-03-18T01:41:28.524Z,0.80
2019-03-18T01:46:29.628Z,0.80
2019-03-18T01:51:30.738Z,0.80
2019-03-18T01:56:31.830Z,0.87
2019-03-18T02:01:32.928Z,1.20
2019-03-18T02:06:34.047Z,0.70
2019-03-18T02:11:35.137Z,0.97
2019-03-18T02:16:36.232Z,0.93
2019-03-18T02:21:37.325Z,0.80
2019-03-18T02:26:38.415Z,0.90
2019-03-18T02:31:39.530Z,0.80
2019-03-18T02:36:40.620Z,0.77
2019-03-18T02:41:41.710Z,1.00
2019-03-18T02:46:42.815Z,0.60
2019-03-18T02:51:43.901Z,0.80
2019-03-18T02:56:45.013Z,0.67
2019-03-18T03:01:46.101Z,0.90
2019-03-18T03:06:47.194Z,0.70
2019-03-18T03:11:48.289Z,0.50
2019-03-18T03:16:49.386Z,0.70
2019-03-18T03:21:50.480Z,0.30
2019-03-18T03:26:51.577Z,0.80
2019-03-18T03:31:52.711Z,0.63
2019-03-18T03:36:53.807Z,0.70
2019-03-18T03:41:55.116Z,0.60
2019-03-18T03:46:56.188Z,0.50
2019-03-18T03:51:57.282Z,0.60
2019-03-18T03:56:58.692Z,0.60
2019-03-18T04:02:00.017Z,0.90
2019-03-18T04:07:01.302Z,0.63
2019-03-18T04:12:02.699Z,0.80
2019-03-18T04:17:03.872Z,0.80
2019-03-18T04:22:04.964Z,0.90
2019-03-18T04:27:06.258Z,0.80
2019-03-18T04:32:07.503Z,0.70
2019-03-18T04:37:08.600Z,0.90
2019-03-18T04:42:09.706Z,0.90
2019-03-18T04:47:14.593Z,0.60
2019-03-18T04:52:13.791Z,0.80
2019-03-18T04:57:14.941Z,0.57
2019-03-18T05:02:16.961Z,0.50
2019-03-18T05:07:18.231Z,0.70
2019-03-18T05:12:19.334Z,0.63
2019-03-18T05:17:26.547Z,0.53
2019-03-18T05:22:23.561Z,0.60
2019-03-18T05:27:24.749Z,0.47
2019-03-18T05:32:25.863Z,0.50
2019-03-18T05:37:26.951Z,0.53
2019-03-18T05:42:28.053Z,0.50
2019-03-18T05:47:38.650Z,0.70
2019-03-18T05:52:32.233Z,0.73
2019-03-18T05:57:33.343Z,0.68
2019-03-18T06:02:34.435Z,0.80
2019-03-18T06:07:35.837Z,1.20
2019-03-18T06:12:36.927Z,0.93
2019-03-18T06:17:38.017Z,0.90
2019-03-18T06:22:39.107Z,0.90
2019-03-18T06:27:40.223Z,0.80
2019-03-18T06:32:41.312Z,1.00
2019-03-18T06:37:42.394Z,0.67
2019-03-18T06:42:43.525Z,1.03
2019-03-18T06:47:44.587Z,0.90
2019-03-18T06:52:45.685Z,0.80
2019-03-18T06:57:46.840Z,0.83
2019-03-18T07:02:47.936Z,0.80
2019-03-18T07:07:49.128Z,0.80
2019-03-18T07:12:50.221Z,0.60
2019-03-18T07:17:51.324Z,0.53
2019-03-18T07:22:52.423Z,0.80
2019-03-18T07:27:53.528Z,1.10
2019-03-18T07:32:54.640Z,0.87
2019-03-18T07:37:55.827Z,1.00
2019-03-18T07:42:57.025Z,1.43
2019-03-18T07:47:58.219Z,0.90
2019-03-18T07:52:59.324Z,1.77
2019-03-18T07:58:00.521Z,1.00
2019-03-18T08:03:03.393Z,5.63
2019-03-18T08:08:04.703Z,1.53
2019-03-18T08:13:05.800Z,1.17
2019-03-18T08:18:06.900Z,0.80
2019-03-18T08:23:08.004Z,1.67
2019-03-18T08:28:09.115Z,1.20
2019-03-18T08:33:10.215Z,1.40
2019-03-18T08:38:11.323Z,1.10
2019-03-18T08:43:12.411Z,1.00
2019-03-18T08:48:13.491Z,1.20
2019-03-18T08:53:14.604Z,1.00
2019-03-18T08:58:15.705Z,1.50
2019-03-18T09:03:16.803Z,1.33
2019-03-18T09:08:17.908Z,1.40
2019-03-18T09:13:18.997Z,1.40
2019-03-18T09:18:20.091Z,1.10
2019-03-18T09:23:21.192Z,2.03
2019-03-18T09:28:22.417Z,2.20
2019-03-18T09:33:23.604Z,3.00
2019-03-18T09:38:24.702Z,3.20
2019-03-18T09:43:26.001Z,2.97
2019-03-18T09:48:27.109Z,1.50
2019-03-18T09:53:28.192Z,1.30
2019-03-18T09:58:29.313Z,2.97
2019-03-18T10:03:30.398Z,6.40
2019-03-18T10:08:31.481Z,1.87
2019-03-18T10:13:32.585Z,1.70
2019-03-18T10:18:33.683Z,1.33
2019-03-18T10:23:34.779Z,1.10
2019-03-18T10:28:35.892Z,0.97
2019-03-18T10:33:36.984Z,0.90
2019-03-18T10:38:38.081Z,1.67
2019-03-18T10:43:39.176Z,2.50
2019-03-18T10:48:40.341Z,1.77
2019-03-18T10:53:41.468Z,0.60
2019-03-18T10:58:42.580Z,1.67
2019-03-18T11:03:43.703Z,4.53
2019-03-18T11:08:44.813Z,1.40
2019-03-18T11:13:45.902Z,0.90
2019-03-18T11:18:47.191Z,1.00
2019-03-18T11:23:48.309Z,1.10
2019-03-18T11:28:49.514Z,0.80
2019-03-18T11:33:50.675Z,0.67
2019-03-18T11:38:51.784Z,1.27
2019-03-18T11:43:52.871Z,1.60
2019-03-18T11:48:53.976Z,0.90
2019-03-18T11:53:55.098Z,1.10
2019-03-18T11:58:56.190Z,0.60
2019-03-18T12:03:57.285Z,0.50
2019-03-18T12:08:58.373Z,0.23
2019-03-18T12:13:59.494Z,0.73
2019-03-18T12:19:00.708Z,1.07
2019-03-18T12:24:01.898Z,0.57
2019-03-18T12:29:03.128Z,0.70
2019-03-18T12:34:04.225Z,0.90
2019-03-18T12:39:05.512Z,0.50
2019-03-18T12:44:06.611Z,0.27
2019-03-18T12:49:07.708Z,1.00
2019-03-18T12:54:08.800Z,0.60
2019-03-18T12:59:10.054Z,0.37
2019-03-18T13:04:11.149Z,0.60
2019-03-18T13:09:12.237Z,0.70
2019-03-18T13:14:13.344Z,0.80
2019-03-18T13:19:14.448Z,0.77
2019-03-18T13:24:15.552Z,0.70
2019-03-18T13:29:16.713Z,0.80
2019-03-18T13:34:17.932Z,0.80
2019-03-18T13:39:19.036Z,0.67
2019-03-18T13:44:20.132Z,0.83
2019-03-18T13:49:21.240Z,1.20
2019-03-18T13:54:22.343Z,0.87
2019-03-18T13:59:23.596Z,1.10
2019-03-18T14:04:24.771Z,0.83
2019-03-18T14:09:25.963Z,1.57
2019-03-18T14:14:27.171Z,1.40
2019-03-18T14:19:28.379Z,1.67
2019-03-18T14:24:29.592Z,2.10
2019-03-18T14:29:30.725Z,0.90
2019-03-18T14:34:31.818Z,1.00
2019-03-18T14:39:33.042Z,1.17
2019-03-18T14:44:34.170Z,1.10
2019-03-18T14:49:35.375Z,1.53
2019-03-18T14:54:36.608Z,1.20
2019-03-18T14:59:37.695Z,1.17
2019-03-18T15:04:38.878Z,1.37
2019-03-18T15:09:40.059Z,1.43
2019-03-18T15:14:41.185Z,1.90
2019-03-18T15:19:42.308Z,1.10
2019-03-18T15:24:43.421Z,1.20
2019-03-18T15:29:44.536Z,1.00
2019-03-18T15:34:45.647Z,1.57
2019-03-18T15:39:46.743Z,1.80
2019-03-18T15:44:48.038Z,2.73
2019-03-18T15:49:49.169Z,1.70
2019-03-18T15:54:54.058Z,1.87
2019-03-18T15:59:53.324Z,1.00
2019-03-18T16:04:54.534Z,1.90
2019-03-18T16:09:55.665Z,1.83
2019-03-18T16:14:56.761Z,0.70
2019-03-18T16:19:57.873Z,0.50
2019-03-18T16:24:59.065Z,0.90
2019-03-18T16:30:00.370Z,1.57
2019-03-18T16:35:02.107Z,1.50
2019-03-18T16:40:06.912Z,1.47
2019-03-18T16:45:13.629Z,0.93
2019-03-18T16:50:27.913Z,2.20
2019-03-18T16:55:29.114Z,2.40
2019-03-18T17:00:30.370Z,2.03
2019-03-18T17:05:31.543Z,1.67
2019-03-18T17:10:32.760Z,2.40
2019-03-18T17:15:33.903Z,2.40
2019-03-18T17:20:35.114Z,2.60
2019-03-18T17:25:36.417Z,3.10
2019-03-18T17:30:37.571Z,2.77
2019-03-18T17:35:38.780Z,4.20
2019-03-18T17:40:39.987Z,4.70
2019-03-18T17:45:41.096Z,3.40
2019-03-18T17:50:42.198Z,3.23
2019-03-18T17:55:43.401Z,4.03
2019-03-18T18:00:55.749Z,3.20
2019-03-18T18:05:56.853Z,3.93
2019-03-18T18:10:57.964Z,3.50
2019-03-18T18:15:59.082Z,4.50
2019-03-18T18:21:00.300Z,3.67
2019-03-18T18:26:01.444Z,3.50
2019-03-18T18:31:02.833Z,1.80
2019-03-18T18:36:04.054Z,1.60
2019-03-18T18:41:05.260Z,1.37
2019-03-18T18:46:06.386Z,1.73
2019-03-18T18:51:07.551Z,1.67
2019-03-18T18:56:08.711Z,2.30
2019-03-18T19:01:10.041Z,2.17
2019-03-18T19:06:11.431Z,2.13
2019-03-18T19:11:12.744Z,2.00
2019-03-18T19:16:13.844Z,1.97
2019-03-18T19:21:14.987Z,2.50
2019-03-18T19:26:16.634Z,2.60
2019-03-18T19:31:18.838Z,2.27
2019-03-18T19:36:19.975Z,2.53
2019-03-18T19:41:21.227Z,2.03
2019-03-18T19:46:22.360Z,2.50
2019-03-18T19:51:23.618Z,3.70
2019-03-18T19:56:24.838Z,4.77
2019-03-18T20:01:26.078Z,3.77
2019-03-18T20:06:27.353Z,4.57
2019-03-18T20:11:28.599Z,4.20
2019-03-18T20:16:29.901Z,3.57
2019-03-18T20:21:31.091Z,3.67
2019-03-18T20:26:32.284Z,3.40
2019-03-18T20:31:33.575Z,3.27
2019-03-18T20:36:34.789Z,3.27
2019-03-18T20:41:36.047Z,4.37
2019-03-18T20:46:37.254Z,4.40
2019-03-18T20:51:38.362Z,3.67
2019-03-18T20:56:39.497Z,3.30
2019-03-18T21:01:40.624Z,3.80
2019-03-18T21:06:41.750Z,4.10
2019-03-18T21:11:42.855Z,4.67
2019-03-18T21:16:43.975Z,4.97
2019-03-18T21:21:45.089Z,4.87
2019-03-18T21:26:46.184Z,4.80
2019-03-18T21:31:47.328Z,5.13
2019-03-18T21:36:48.434Z,5.03
2019-03-18T21:41:49.534Z,5.20
2019-03-18T21:46:50.660Z,5.00
2019-03-18T21:51:51.771Z,5.23
2019-03-18T21:56:52.984Z,6.90
2019-03-18T22:01:54.104Z,5.30
2019-03-18T22:06:55.203Z,5.40
2019-03-18T22:11:56.309Z,5.67
2019-03-18T22:16:57.486Z,6.23
2019-03-18T22:21:58.693Z,5.83
2019-03-18T22:26:59.800Z,5.60
2019-03-18T22:32:01.042Z,6.30
2019-03-18T22:37:02.259Z,5.77
2019-03-18T22:42:03.353Z,6.17
2019-03-18T22:47:04.588Z,5.17
2019-03-18T22:52:05.675Z,5.23
2019-03-18T22:57:06.794Z,6.13
2019-03-18T23:02:08.197Z,5.50
2019-03-18T23:07:09.387Z,5.07
2019-03-18T23:12:10.476Z,5.33
2019-03-18T23:17:11.598Z,6.47
2019-03-18T23:22:12.676Z,5.77
2019-03-18T23:27:13.776Z,6.53
2019-03-18T23:32:14.975Z,7.17
2019-03-18T23:37:16.068Z,5.57
2019-03-18T23:42:17.161Z,6.13
2019-03-18T23:47:18.258Z,5.27
2019-03-18T23:52:19.459Z,4.83
2019-03-18T23:57:20.556Z,4.13
